sensor_id;sensor_type;location;lat;lon;timestamp;P1;durP1;ratioP1;P2;durP2;ratioP2
17201;SDS011;8717;53.588;10.176;2024-01-15T00:01:28;7.07;;;1.80;;
17201;SDS011;8717;53.588;10.176;2024-01-15T00:03:55;9.87;;;1.83;;
17201;SDS011;8717;53.588;10.176;2024-01-15T00:06:23;9.37;;;1.87;;
17201;SDS011;8717;53.588;10.176;2024-01-15T00:08:50;6.73;;;2.20;;
17201;SDS011;8717;53.588;10.176;2024-01-15T00:11:16;10.47;;;1.83;;
17201;SDS011;8717;53.588;10.176;2024-01-15T00:13:43;12.20;;;2.23;;
17201;SDS011;8717;53.588;10.176;2024-01-15T00:16:10;9.43;;;2.23;;
17201;SDS011;8717;53.588;10.176;2024-01-15T00:18:37;6.93;;;1.90;;
17201;SDS011;8717;53.588;10.176;2024-01-15T00:21:04;11.03;;;1.80;;
17201;SDS011;8717;53.588;10.176;2024-01-15T00:23:32;8.53;;;2.37;;
17201;SDS011;8717;53.588;10.176;2024-01-15T00:25:58;9.83;;;1.90;;
17201;SDS011;8717;53.588;10.176;2024-01-15T00:28:25;7.83;;;1.63;;
17201;SDS011;8717;53.588;10.176;2024-01-15T00:30:52;7.33;;;1.87;;
17201;SDS011;8717;53.588;10.176;2024-01-15T00:33:19;7.03;;;1.97;;
17201;SDS011;8717;53.588;10.176;2024-01-15T00:35:46;12.50;;;2.47;;
17201;SDS011;8717;53.588;10.176;2024-01-15T00:38:12;10.47;;;1.93;;
17201;SDS011;8717;53.588;10.176;2024-01-15T00:40:40;10.23;;;2.03;;
17201;SDS011;8717;53.588;10.176;2024-01-15T00:43:07;8.77;;;2.70;;
17201;SDS011;8717;53.588;10.176;2024-01-15T00:45:34;14.00;;;2.67;;
17201;SDS011;8717;53.588;10.176;2024-01-15T00:48:00;12.00;;;2.10;;
17201;SDS011;8717;53.588;10.176;2024-01-15T00:50:28;9.63;;;1.90;;
17201;SDS011;8717;53.588;10.176;2024-01-15T00:52:55;8.77;;;2.10;;
17201;SDS011;8717;53.588;10.176;2024-01-15T00:55:22;26.30;;;2.70;;
17201;SDS011;8717;53.588;10.176;2024-01-15T00:57:50;10.13;;;1.93;;
17201;SDS011;8717;53.588;10.176;2024-01-15T01:00:17;6.87;;;2.03;;
17201;SDS011;8717;53.588;10.176;2024-01-15T01:02:44;12.03;;;2.23;;
17201;SDS011;8717;53.588;10.176;2024-01-15T01:05:11;12.03;;;2.70;;
17201;SDS011;8717;53.588;10.176;2024-01-15T01:07:38;11.47;;;2.87;;
17201;SDS011;8717;53.588;10.176;2024-01-15T01:10:05;7.47;;;2.40;;
17201;SDS011;8717;53.588;10.176;2024-01-15T01:12:33;10.07;;;2.40;;
17201;SDS011;8717;53.588;10.176;2024-01-15T01:15:01;6.57;;;1.90;;
17201;SDS011;8717;53.588;10.176;2024-01-15T01:17:28;9.57;;;1.90;;
17201;SDS011;8717;53.588;10.176;2024-01-15T01:19:56;11.03;;;2.27;;
17201;SDS011;8717;53.588;10.176;2024-01-15T01:22:23;6.93;;;1.80;;
17201;SDS011;8717;53.588;10.176;2024-01-15T01:24:50;12.30;;;2.03;;
17201;SDS011;8717;53.588;10.176;2024-01-15T01:27:17;12.57;;;2.20;;
17201;SDS011;8717;53.588;10.176;2024-01-15T01:29:44;12.73;;;2.37;;
17201;SDS011;8717;53.588;10.176;2024-01-15T01:32:13;8.13;;;2.13;;
17201;SDS011;8717;53.588;10.176;2024-01-15T01:34:40;11.67;;;2.20;;
17201;SDS011;8717;53.588;10.176;2024-01-15T01:37:07;6.83;;;1.97;;
17201;SDS011;8717;53.588;10.176;2024-01-15T01:39:34;9.37;;;2.70;;
17201;SDS011;8717;53.588;10.176;2024-01-15T01:42:01;13.00;;;2.40;;
17201;SDS011;8717;53.588;10.176;2024-01-15T01:44:28;9.77;;;2.20;;
17201;SDS011;8717;53.588;10.176;2024-01-15T01:46:55;12.97;;;2.50;;
17201;SDS011;8717;53.588;10.176;2024-01-15T01:49:24;9.90;;;2.17;;
17201;SDS011;8717;53.588;10.176;2024-01-15T01:51:53;10.00;;;2.10;;
17201;SDS011;8717;53.588;10.176;2024-01-15T01:54:22;13.90;;;2.50;;
17201;SDS011;8717;53.588;10.176;2024-01-15T01:56:51;13.43;;;2.30;;
17201;SDS011;8717;53.588;10.176;2024-01-15T01:59:18;14.17;;;2.17;;
17201;SDS011;8717;53.588;10.176;2024-01-15T02:01:46;9.97;;;2.77;;
17201;SDS011;8717;53.588;10.176;2024-01-15T02:04:14;8.50;;;2.40;;
17201;SDS011;8717;53.588;10.176;2024-01-15T02:06:43;9.67;;;2.37;;
17201;SDS011;8717;53.588;10.176;2024-01-15T02:09:10;10.37;;;2.27;;
17201;SDS011;8717;53.588;10.176;2024-01-15T02:11:40;11.17;;;2.30;;
17201;SDS011;8717;53.588;10.176;2024-01-15T02:14:08;8.90;;;2.07;;
17201;SDS011;8717;53.588;10.176;2024-01-15T02:16:35;7.00;;;1.50;;
17201;SDS011;8717;53.588;10.176;2024-01-15T02:19:02;7.60;;;2.00;;
17201;SDS011;8717;53.588;10.176;2024-01-15T02:21:29;9.67;;;2.20;;
17201;SDS011;8717;53.588;10.176;2024-01-15T02:23:58;11.97;;;2.47;;
17201;SDS011;8717;53.588;10.176;2024-01-15T02:26:25;10.37;;;2.10;;
17201;SDS011;8717;53.588;10.176;2024-01-15T02:28:53;7.60;;;1.77;;
17201;SDS011;8717;53.588;10.176;2024-01-15T02:31:20;6.37;;;2.27;;
17201;SDS011;8717;53.588;10.176;2024-01-15T02:33:47;29.10;;;2.80;;
17201;SDS011;8717;53.588;10.176;2024-01-15T02:36:16;6.90;;;1.97;;
17201;SDS011;8717;53.588;10.176;2024-01-15T02:38:43;6.60;;;1.90;;
17201;SDS011;8717;53.588;10.176;2024-01-15T02:41:11;5.63;;;1.57;;
17201;SDS011;8717;53.588;10.176;2024-01-15T02:43:39;5.33;;;2.20;;
17201;SDS011;8717;53.588;10.176;2024-01-15T02:46:06;5.60;;;1.70;;
17201;SDS011;8717;53.588;10.176;2024-01-15T02:48:33;8.33;;;2.47;;
17201;SDS011;8717;53.588;10.176;2024-01-15T02:51:00;9.70;;;2.07;;
17201;SDS011;8717;53.588;10.176;2024-01-15T02:53:27;12.60;;;2.60;;
17201;SDS011;8717;53.588;10.176;2024-01-15T02:55:54;8.63;;;2.27;;
17201;SDS011;8717;53.588;10.176;2024-01-15T02:58:22;13.53;;;3.03;;
17201;SDS011;8717;53.588;10.176;2024-01-15T03:00:49;9.57;;;3.17;;
17201;SDS011;8717;53.588;10.176;2024-01-15T03:03:16;12.53;;;2.90;;
17201;SDS011;8717;53.588;10.176;2024-01-15T03:05:43;12.47;;;2.80;;
17201;SDS011;8717;53.588;10.176;2024-01-15T03:08:10;10.17;;;2.50;;
17201;SDS011;8717;53.588;10.176;2024-01-15T03:10:36;6.63;;;2.50;;
17201;SDS011;8717;53.588;10.176;2024-01-15T03:13:03;9.67;;;2.30;;
17201;SDS011;8717;53.588;10.176;2024-01-15T03:15:32;8.73;;;2.50;;
17201;SDS011;8717;53.588;10.176;2024-01-15T03:17:59;12.90;;;2.47;;
17201;SDS011;8717;53.588;10.176;2024-01-15T03:20:26;9.27;;;1.73;;
17201;SDS011;8717;53.588;10.176;2024-01-15T03:22:53;11.20;;;2.13;;
17201;SDS011;8717;53.588;10.176;2024-01-15T03:25:20;9.33;;;2.13;;
17201;SDS011;8717;53.588;10.176;2024-01-15T03:27:47;13.00;;;2.47;;
17201;SDS011;8717;53.588;10.176;2024-01-15T03:30:14;12.57;;;2.20;;
17201;SDS011;8717;53.588;10.176;2024-01-15T03:32:42;10.17;;;2.40;;
17201;SDS011;8717;53.588;10.176;2024-01-15T03:35:09;12.03;;;2.73;;
17201;SDS011;8717;53.588;10.176;2024-01-15T03:37:36;7.70;;;1.70;;
17201;SDS011;8717;53.588;10.176;2024-01-15T03:40:04;13.00;;;2.10;;
17201;SDS011;8717;53.588;10.176;2024-01-15T03:42:31;15.87;;;2.60;;
17201;SDS011;8717;53.588;10.176;2024-01-15T03:44:58;10.53;;;2.40;;
17201;SDS011;8717;53.588;10.176;2024-01-15T03:47:25;18.37;;;2.80;;
17201;SDS011;8717;53.588;10.176;2024-01-15T03:49:54;14.63;;;2.77;;
17201;SDS011;8717;53.588;10.176;2024-01-15T03:52:20;8.83;;;2.27;;
17201;SDS011;8717;53.588;10.176;2024-01-15T03:54:47;13.30;;;2.97;;
17201;SDS011;8717;53.588;10.176;2024-01-15T03:57:14;17.37;;;2.80;;
17201;SDS011;8717;53.588;10.176;2024-01-15T03:59:41;12.73;;;2.40;;
17201;SDS011;8717;53.588;10.176;2024-01-15T04:02:08;15.70;;;2.73;;
17201;SDS011;8717;53.588;10.176;2024-01-15T04:04:35;12.43;;;3.30;;
17201;SDS011;8717;53.588;10.176;2024-01-15T04:07:07;12.27;;;3.00;;
17201;SDS011;8717;53.588;10.176;2024-01-15T04:09:35;16.33;;;3.10;;
17201;SDS011;8717;53.588;10.176;2024-01-15T04:12:02;14.50;;;2.90;;
17201;SDS011;8717;53.588;10.176;2024-01-15T04:14:29;12.47;;;3.10;;
17201;SDS011;8717;53.588;10.176;2024-01-15T04:16:56;13.20;;;2.60;;
17201;SDS011;8717;53.588;10.176;2024-01-15T04:19:23;15.17;;;2.70;;
17201;SDS011;8717;53.588;10.176;2024-01-15T04:21:50;14.53;;;2.77;;
17201;SDS011;8717;53.588;10.176;2024-01-15T04:24:18;15.63;;;2.83;;
17201;SDS011;8717;53.588;10.176;2024-01-15T04:26:45;13.77;;;3.00;;
17201;SDS011;8717;53.588;10.176;2024-01-15T04:29:12;13.47;;;3.10;;
17201;SDS011;8717;53.588;10.176;2024-01-15T04:31:39;10.30;;;2.90;;
17201;SDS011;8717;53.588;10.176;2024-01-15T04:34:06;14.20;;;3.17;;
17201;SDS011;8717;53.588;10.176;2024-01-15T04:36:38;17.90;;;2.60;;
17201;SDS011;8717;53.588;10.176;2024-01-15T04:39:05;16.17;;;3.20;;
17201;SDS011;8717;53.588;10.176;2024-01-15T04:41:34;12.37;;;2.30;;
17201;SDS011;8717;53.588;10.176;2024-01-15T04:44:01;15.97;;;3.07;;
17201;SDS011;8717;53.588;10.176;2024-01-15T04:46:28;17.17;;;2.97;;
17201;SDS011;8717;53.588;10.176;2024-01-15T04:48:55;15.33;;;2.70;;
17201;SDS011;8717;53.588;10.176;2024-01-15T04:51:23;15.17;;;2.83;;
17201;SDS011;8717;53.588;10.176;2024-01-15T04:53:50;13.77;;;2.77;;
17201;SDS011;8717;53.588;10.176;2024-01-15T04:56:17;11.47;;;3.33;;
17201;SDS011;8717;53.588;10.176;2024-01-15T04:58:45;15.50;;;2.70;;
17201;SDS011;8717;53.588;10.176;2024-01-15T05:01:12;18.83;;;3.07;;
17201;SDS011;8717;53.588;10.176;2024-01-15T05:03:41;13.17;;;3.07;;
17201;SDS011;8717;53.588;10.176;2024-01-15T05:06:08;13.97;;;3.10;;
17201;SDS011;8717;53.588;10.176;2024-01-15T05:08:36;21.03;;;3.67;;
17201;SDS011;8717;53.588;10.176;2024-01-15T05:11:03;16.03;;;3.27;;
17201;SDS011;8717;53.588;10.176;2024-01-15T05:13:30;17.17;;;3.60;;
17201;SDS011;8717;53.588;10.176;2024-01-15T05:15:58;25.67;;;3.40;;
17201;SDS011;8717;53.588;10.176;2024-01-15T05:18:26;16.93;;;3.63;;
17201;SDS011;8717;53.588;10.176;2024-01-15T05:20:53;20.30;;;3.87;;
17201;SDS011;8717;53.588;10.176;2024-01-15T05:23:20;22.87;;;3.40;;
17201;SDS011;8717;53.588;10.176;2024-01-15T05:25:47;20.77;;;3.80;;
17201;SDS011;8717;53.588;10.176;2024-01-15T05:28:14;21.47;;;3.37;;
17201;SDS011;8717;53.588;10.176;2024-01-15T05:30:41;19.27;;;3.60;;
17201;SDS011;8717;53.588;10.176;2024-01-15T05:33:09;17.57;;;3.17;;
17201;SDS011;8717;53.588;10.176;2024-01-15T05:35:37;15.87;;;3.73;;
17201;SDS011;8717;53.588;10.176;2024-01-15T05:38:04;18.27;;;3.10;;
17201;SDS011;8717;53.588;10.176;2024-01-15T05:40:31;14.37;;;3.57;;
17201;SDS011;8717;53.588;10.176;2024-01-15T05:42:58;25.30;;;3.43;;
17201;SDS011;8717;53.588;10.176;2024-01-15T05:45:25;15.07;;;2.80;;
17201;SDS011;8717;53.588;10.176;2024-01-15T05:47:53;17.10;;;2.90;;
17201;SDS011;8717;53.588;10.176;2024-01-15T05:50:22;16.10;;;3.40;;
17201;SDS011;8717;53.588;10.176;2024-01-15T05:52:49;17.77;;;3.10;;
17201;SDS011;8717;53.588;10.176;2024-01-15T05:55:17;12.97;;;2.80;;
17201;SDS011;8717;53.588;10.176;2024-01-15T05:57:43;15.63;;;3.10;;
17201;SDS011;8717;53.588;10.176;2024-01-15T06:00:11;14.67;;;2.67;;
17201;SDS011;8717;53.588;10.176;2024-01-15T06:02:38;19.97;;;4.03;;
17201;SDS011;8717;53.588;10.176;2024-01-15T06:05:05;15.73;;;3.33;;
17201;SDS011;8717;53.588;10.176;2024-01-15T06:07:34;16.13;;;3.10;;
17201;SDS011;8717;53.588;10.176;2024-01-15T06:10:01;19.30;;;3.83;;
17201;SDS011;8717;53.588;10.176;2024-01-15T06:12:28;15.67;;;3.63;;
17201;SDS011;8717;53.588;10.176;2024-01-15T06:14:55;14.07;;;3.03;;
17201;SDS011;8717;53.588;10.176;2024-01-15T06:17:22;16.93;;;3.37;;
17201;SDS011;8717;53.588;10.176;2024-01-15T06:19:49;13.77;;;3.40;;
17201;SDS011;8717;53.588;10.176;2024-01-15T06:22:16;15.20;;;3.03;;
17201;SDS011;8717;53.588;10.176;2024-01-15T06:24:45;19.37;;;3.23;;
17201;SDS011;8717;53.588;10.176;2024-01-15T06:27:12;14.63;;;3.30;;
17201;SDS011;8717;53.588;10.176;2024-01-15T06:29:44;13.27;;;3.10;;
17201;SDS011;8717;53.588;10.176;2024-01-15T06:32:12;14.70;;;2.80;;
17201;SDS011;8717;53.588;10.176;2024-01-15T06:34:39;16.00;;;3.20;;
17201;SDS011;8717;53.588;10.176;2024-01-15T06:37:06;16.63;;;2.80;;
17201;SDS011;8717;53.588;10.176;2024-01-15T06:39:33;14.97;;;3.77;;
17201;SDS011;8717;53.588;10.176;2024-01-15T06:42:01;18.20;;;3.50;;
17201;SDS011;8717;53.588;10.176;2024-01-15T06:44:29;18.87;;;3.23;;
17201;SDS011;8717;53.588;10.176;2024-01-15T06:46:55;14.40;;;3.17;;
17201;SDS011;8717;53.588;10.176;2024-01-15T06:49:27;17.60;;;3.17;;
17201;SDS011;8717;53.588;10.176;2024-01-15T06:51:54;15.07;;;3.40;;
17201;SDS011;8717;53.588;10.176;2024-01-15T06:54:20;13.80;;;2.87;;
17201;SDS011;8717;53.588;10.176;2024-01-15T06:56:48;12.07;;;2.83;;
17201;SDS011;8717;53.588;10.176;2024-01-15T06:59:16;15.37;;;3.10;;
17201;SDS011;8717;53.588;10.176;2024-01-15T07:01:43;16.13;;;3.10;;
17201;SDS011;8717;53.588;10.176;2024-01-15T07:04:13;15.57;;;4.37;;
17201;SDS011;8717;53.588;10.176;2024-01-15T07:06:42;19.60;;;3.47;;
17201;SDS011;8717;53.588;10.176;2024-01-15T07:09:08;12.90;;;3.20;;
17201;SDS011;8717;53.588;10.176;2024-01-15T07:11:36;12.47;;;2.70;;
17201;SDS011;8717;53.588;10.176;2024-01-15T07:14:03;19.43;;;4.00;;
17201;SDS011;8717;53.588;10.176;2024-01-15T07:16:32;19.33;;;2.97;;
17201;SDS011;8717;53.588;10.176;2024-01-15T07:18:58;15.40;;;2.90;;
17201;SDS011;8717;53.588;10.176;2024-01-15T07:21:25;17.53;;;2.73;;
17201;SDS011;8717;53.588;10.176;2024-01-15T07:23:52;11.93;;;2.30;;
17201;SDS011;8717;53.588;10.176;2024-01-15T07:26:18;16.17;;;2.87;;
17201;SDS011;8717;53.588;10.176;2024-01-15T07:28:45;11.17;;;3.00;;
17201;SDS011;8717;53.588;10.176;2024-01-15T07:31:12;10.43;;;2.80;;
17201;SDS011;8717;53.588;10.176;2024-01-15T07:33:40;10.77;;;2.30;;
17201;SDS011;8717;53.588;10.176;2024-01-15T07:36:07;18.40;;;3.03;;
17201;SDS011;8717;53.588;10.176;2024-01-15T07:38:34;11.90;;;2.67;;
17201;SDS011;8717;53.588;10.176;2024-01-15T07:41:01;14.07;;;2.53;;
17201;SDS011;8717;53.588;10.176;2024-01-15T07:43:27;14.03;;;3.07;;
17201;SDS011;8717;53.588;10.176;2024-01-15T07:45:54;14.07;;;2.33;;
17201;SDS011;8717;53.588;10.176;2024-01-15T07:48:21;10.67;;;2.43;;
17201;SDS011;8717;53.588;10.176;2024-01-15T07:50:49;15.07;;;2.37;;
17201;SDS011;8717;53.588;10.176;2024-01-15T07:53:16;8.90;;;1.90;;
17201;SDS011;8717;53.588;10.176;2024-01-15T07:55:42;8.27;;;2.20;;
17201;SDS011;8717;53.588;10.176;2024-01-15T07:58:11;13.70;;;2.20;;
17201;SDS011;8717;53.588;10.176;2024-01-15T08:00:37;9.30;;;2.87;;
17201;SDS011;8717;53.588;10.176;2024-01-15T08:03:04;8.77;;;2.00;;
17201;SDS011;8717;53.588;10.176;2024-01-15T08:05:31;9.30;;;2.37;;
17201;SDS011;8717;53.588;10.176;2024-01-15T08:07:59;14.73;;;2.30;;
17201;SDS011;8717;53.588;10.176;2024-01-15T08:10:26;9.20;;;2.20;;
17201;SDS011;8717;53.588;10.176;2024-01-15T08:12:54;9.60;;;2.80;;
17201;SDS011;8717;53.588;10.176;2024-01-15T08:15:20;12.73;;;1.83;;
17201;SDS011;8717;53.588;10.176;2024-01-15T08:17:47;11.33;;;2.00;;
17201;SDS011;8717;53.588;10.176;2024-01-15T08:20:14;7.50;;;1.63;;
17201;SDS011;8717;53.588;10.176;2024-01-15T08:22:41;10.43;;;2.37;;
17201;SDS011;8717;53.588;10.176;2024-01-15T08:25:09;15.10;;;2.10;;
17201;SDS011;8717;53.588;10.176;2024-01-15T08:27:38;10.07;;;2.37;;
17201;SDS011;8717;53.588;10.176;2024-01-15T08:30:05;9.50;;;2.23;;
17201;SDS011;8717;53.588;10.176;2024-01-15T08:32:32;12.50;;;2.23;;
17201;SDS011;8717;53.588;10.176;2024-01-15T08:35:01;9.63;;;2.20;;
17201;SDS011;8717;53.588;10.176;2024-01-15T08:37:29;10.70;;;2.00;;
17201;SDS011;8717;53.588;10.176;2024-01-15T08:39:55;8.73;;;2.27;;
17201;SDS011;8717;53.588;10.176;2024-01-15T08:42:23;18.77;;;2.30;;
17201;SDS011;8717;53.588;10.176;2024-01-15T08:44:50;8.07;;;2.03;;
17201;SDS011;8717;53.588;10.176;2024-01-15T08:47:17;7.87;;;1.57;;
17201;SDS011;8717;53.588;10.176;2024-01-15T08:49:44;8.33;;;1.93;;
17201;SDS011;8717;53.588;10.176;2024-01-15T08:52:11;14.37;;;3.00;;
17201;SDS011;8717;53.588;10.176;2024-01-15T08:54:39;9.43;;;2.30;;
17201;SDS011;8717;53.588;10.176;2024-01-15T08:57:05;10.50;;;1.90;;
17201;SDS011;8717;53.588;10.176;2024-01-15T08:59:33;6.10;;;1.60;;
17201;SDS011;8717;53.588;10.176;2024-01-15T09:02:00;5.90;;;1.83;;
17201;SDS011;8717;53.588;10.176;2024-01-15T09:04:27;9.23;;;2.30;;
17201;SDS011;8717;53.588;10.176;2024-01-15T09:06:54;7.60;;;2.00;;
17201;SDS011;8717;53.588;10.176;2024-01-15T09:09:20;9.03;;;1.70;;
17201;SDS011;8717;53.588;10.176;2024-01-15T09:11:47;8.70;;;1.83;;
17201;SDS011;8717;53.588;10.176;2024-01-15T09:14:14;7.57;;;1.87;;
17201;SDS011;8717;53.588;10.176;2024-01-15T09:16:42;12.67;;;1.70;;
17201;SDS011;8717;53.588;10.176;2024-01-15T09:19:09;9.73;;;1.93;;
17201;SDS011;8717;53.588;10.176;2024-01-15T09:21:37;13.37;;;1.90;;
17201;SDS011;8717;53.588;10.176;2024-01-15T09:24:04;11.53;;;1.67;;
17201;SDS011;8717;53.588;10.176;2024-01-15T09:26:31;10.03;;;2.10;;
17201;SDS011;8717;53.588;10.176;2024-01-15T09:28:58;10.40;;;2.20;;
17201;SDS011;8717;53.588;10.176;2024-01-15T09:31:26;9.83;;;2.23;;
17201;SDS011;8717;53.588;10.176;2024-01-15T09:33:54;11.30;;;2.07;;
17201;SDS011;8717;53.588;10.176;2024-01-15T09:36:23;8.23;;;2.13;;
17201;SDS011;8717;53.588;10.176;2024-01-15T09:38:50;7.50;;;2.00;;
17201;SDS011;8717;53.588;10.176;2024-01-15T09:41:17;6.63;;;1.93;;
17201;SDS011;8717;53.588;10.176;2024-01-15T09:43:44;9.17;;;2.50;;
17201;SDS011;8717;53.588;10.176;2024-01-15T09:46:11;7.53;;;1.70;;
17201;SDS011;8717;53.588;10.176;2024-01-15T09:48:39;7.40;;;1.97;;
17201;SDS011;8717;53.588;10.176;2024-01-15T09:51:07;12.33;;;2.40;;
17201;SDS011;8717;53.588;10.176;2024-01-15T09:53:35;9.40;;;2.07;;
17201;SDS011;8717;53.588;10.176;2024-01-15T09:56:03;7.70;;;2.07;;
17201;SDS011;8717;53.588;10.176;2024-01-15T09:58:31;16.90;;;2.43;;
17201;SDS011;8717;53.588;10.176;2024-01-15T10:00:58;7.00;;;1.80;;
17201;SDS011;8717;53.588;10.176;2024-01-15T10:03:26;10.50;;;2.10;;
17201;SDS011;8717;53.588;10.176;2024-01-15T10:05:53;10.33;;;2.17;;
17201;SDS011;8717;53.588;10.176;2024-01-15T10:08:21;8.30;;;1.60;;
17201;SDS011;8717;53.588;10.176;2024-01-15T10:10:50;7.30;;;1.87;;
17201;SDS011;8717;53.588;10.176;2024-01-15T10:13:16;9.47;;;1.83;;
17201;SDS011;8717;53.588;10.176;2024-01-15T10:15:44;6.40;;;1.50;;
17201;SDS011;8717;53.588;10.176;2024-01-15T10:18:12;9.73;;;2.13;;
17201;SDS011;8717;53.588;10.176;2024-01-15T10:20:39;8.80;;;2.20;;
17201;SDS011;8717;53.588;10.176;2024-01-15T10:23:05;11.77;;;2.10;;
17201;SDS011;8717;53.588;10.176;2024-01-15T10:25:34;13.73;;;1.87;;
17201;SDS011;8717;53.588;10.176;2024-01-15T10:28:02;8.13;;;2.13;;
17201;SDS011;8717;53.588;10.176;2024-01-15T10:30:30;9.47;;;2.00;;
17201;SDS011;8717;53.588;10.176;2024-01-15T10:32:59;11.10;;;2.00;;
17201;SDS011;8717;53.588;10.176;2024-01-15T10:35:27;10.77;;;2.63;;
17201;SDS011;8717;53.588;10.176;2024-01-15T10:37:55;9.80;;;1.73;;
17201;SDS011;8717;53.588;10.176;2024-01-15T10:40:21;12.60;;;1.97;;
17201;SDS011;8717;53.588;10.176;2024-01-15T10:42:49;9.47;;;1.90;;
17201;SDS011;8717;53.588;10.176;2024-01-15T10:45:16;9.40;;;1.97;;
17201;SDS011;8717;53.588;10.176;2024-01-15T10:47:43;8.13;;;2.20;;
17201;SDS011;8717;53.588;10.176;2024-01-15T10:50:11;8.30;;;1.73;;
17201;SDS011;8717;53.588;10.176;2024-01-15T10:52:38;7.13;;;2.03;;
17201;SDS011;8717;53.588;10.176;2024-01-15T10:55:07;9.60;;;1.50;;
17201;SDS011;8717;53.588;10.176;2024-01-15T10:57:35;5.93;;;1.47;;
17201;SDS011;8717;53.588;10.176;2024-01-15T11:00:04;6.63;;;1.40;;
17201;SDS011;8717;53.588;10.176;2024-01-15T11:02:32;5.17;;;1.50;;
17201;SDS011;8717;53.588;10.176;2024-01-15T11:05:00;4.07;;;1.23;;
17201;SDS011;8717;53.588;10.176;2024-01-15T11:07:27;5.03;;;1.50;;
17201;SDS011;8717;53.588;10.176;2024-01-15T11:09:56;6.67;;;1.90;;
17201;SDS011;8717;53.588;10.176;2024-01-15T11:12:24;6.40;;;1.70;;
17201;SDS011;8717;53.588;10.176;2024-01-15T11:14:51;6.57;;;1.60;;
17201;SDS011;8717;53.588;10.176;2024-01-15T11:17:21;7.20;;;1.50;;
17201;SDS011;8717;53.588;10.176;2024-01-15T11:19:48;7.93;;;1.50;;
17201;SDS011;8717;53.588;10.176;2024-01-15T11:25:14;5.07;;;1.30;;
17201;SDS011;8717;53.588;10.176;2024-01-15T11:27:41;7.50;;;1.70;;
17201;SDS011;8717;53.588;10.176;2024-01-15T11:30:09;3.43;;;1.30;;
17201;SDS011;8717;53.588;10.176;2024-01-15T11:32:39;3.70;;;1.60;;
17201;SDS011;8717;53.588;10.176;2024-01-15T11:35:07;6.60;;;1.10;;
17201;SDS011;8717;53.588;10.176;2024-01-15T11:40:35;6.33;;;1.20;;
17201;SDS011;8717;53.588;10.176;2024-01-15T11:43:04;3.00;;;1.10;;
17201;SDS011;8717;53.588;10.176;2024-01-15T11:45:31;9.83;;;1.40;;
17201;SDS011;8717;53.588;10.176;2024-01-15T11:48:10;5.77;;;1.30;;
17201;SDS011;8717;53.588;10.176;2024-01-15T11:50:42;4.57;;;1.50;;
17201;SDS011;8717;53.588;10.176;2024-01-15T11:55:54;7.07;;;1.90;;
17201;SDS011;8717;53.588;10.176;2024-01-15T11:58:24;7.07;;;1.70;;
17201;SDS011;8717;53.588;10.176;2024-01-15T12:00:51;8.50;;;2.40;;
17201;SDS011;8717;53.588;10.176;2024-01-15T12:03:21;5.17;;;2.00;;
17201;SDS011;8717;53.588;10.176;2024-01-15T12:05:48;4.37;;;1.47;;
17201;SDS011;8717;53.588;10.176;2024-01-15T12:08:20;8.43;;;1.63;;
17201;SDS011;8717;53.588;10.176;2024-01-15T12:10:47;11.40;;;2.57;;
17201;SDS011;8717;53.588;10.176;2024-01-15T12:13:14;4.60;;;1.87;;
17201;SDS011;8717;53.588;10.176;2024-01-15T12:15:42;6.80;;;1.80;;
17201;SDS011;8717;53.588;10.176;2024-01-15T12:18:11;5.73;;;1.73;;
17201;SDS011;8717;53.588;10.176;2024-01-15T12:20:41;6.33;;;1.50;;
17201;SDS011;8717;53.588;10.176;2024-01-15T12:23:09;4.60;;;1.40;;
17201;SDS011;8717;53.588;10.176;2024-01-15T12:25:36;5.47;;;1.73;;
17201;SDS011;8717;53.588;10.176;2024-01-15T12:28:03;6.53;;;1.80;;
17201;SDS011;8717;53.588;10.176;2024-01-15T12:30:32;8.70;;;1.97;;
17201;SDS011;8717;53.588;10.176;2024-01-15T12:33:01;6.73;;;1.70;;
17201;SDS011;8717;53.588;10.176;2024-01-15T12:35:29;6.57;;;2.00;;
17201;SDS011;8717;53.588;10.176;2024-01-15T12:37:59;6.23;;;2.00;;
17201;SDS011;8717;53.588;10.176;2024-01-15T12:40:27;6.50;;;1.60;;
17201;SDS011;8717;53.588;10.176;2024-01-15T12:42:54;2.87;;;1.50;;
17201;SDS011;8717;53.588;10.176;2024-01-15T12:45:21;6.97;;;1.90;;
17201;SDS011;8717;53.588;10.176;2024-01-15T12:47:48;7.20;;;1.70;;
17201;SDS011;8717;53.588;10.176;2024-01-15T12:50:16;5.40;;;1.80;;
17201;SDS011;8717;53.588;10.176;2024-01-15T12:52:42;8.00;;;1.93;;
17201;SDS011;8717;53.588;10.176;2024-01-15T12:55:11;4.60;;;1.77;;
17201;SDS011;8717;53.588;10.176;2024-01-15T12:57:38;15.13;;;2.50;;
17201;SDS011;8717;53.588;10.176;2024-01-15T13:00:05;9.53;;;2.30;;
17201;SDS011;8717;53.588;10.176;2024-01-15T13:02:37;7.90;;;1.80;;
17201;SDS011;8717;53.588;10.176;2024-01-15T13:05:04;7.00;;;2.07;;
17201;SDS011;8717;53.588;10.176;2024-01-15T13:07:32;6.17;;;1.70;;
17201;SDS011;8717;53.588;10.176;2024-01-15T13:09:59;5.00;;;2.10;;
17201;SDS011;8717;53.588;10.176;2024-01-15T13:12:27;7.80;;;1.70;;
17201;SDS011;8717;53.588;10.176;2024-01-15T13:14:53;5.47;;;1.90;;
17201;SDS011;8717;53.588;10.176;2024-01-15T13:17:21;4.03;;;1.60;;
17201;SDS011;8717;53.588;10.176;2024-01-15T13:19:48;8.57;;;1.60;;
17201;SDS011;8717;53.588;10.176;2024-01-15T13:22:14;6.43;;;1.97;;
17201;SDS011;8717;53.588;10.176;2024-01-15T13:24:41;2.57;;;1.50;;
17201;SDS011;8717;53.588;10.176;2024-01-15T13:27:08;4.50;;;1.90;;
17201;SDS011;8717;53.588;10.176;2024-01-15T13:29:36;7.37;;;1.87;;
17201;SDS011;8717;53.588;10.176;2024-01-15T13:32:03;3.63;;;1.40;;
17201;SDS011;8717;53.588;10.176;2024-01-15T13:34:30;4.30;;;1.80;;
17201;SDS011;8717;53.588;10.176;2024-01-15T13:36:57;5.70;;;1.70;;
17201;SDS011;8717;53.588;10.176;2024-01-15T13:39:24;4.20;;;1.77;;
17201;SDS011;8717;53.588;10.176;2024-01-15T13:41:51;5.63;;;1.70;;
17201;SDS011;8717;53.588;10.176;2024-01-15T13:44:18;3.87;;;1.50;;
17201;SDS011;8717;53.588;10.176;2024-01-15T13:46:46;3.17;;;1.93;;
17201;SDS011;8717;53.588;10.176;2024-01-15T13:49:13;4.90;;;1.73;;
17201;SDS011;8717;53.588;10.176;2024-01-15T13:51:40;2.37;;;1.40;;
17201;SDS011;8717;53.588;10.176;2024-01-15T13:54:06;4.40;;;1.90;;
17201;SDS011;8717;53.588;10.176;2024-01-15T13:56:33;3.07;;;1.63;;
17201;SDS011;8717;53.588;10.176;2024-01-15T13:59:00;2.90;;;1.57;;
17201;SDS011;8717;53.588;10.176;2024-01-15T14:01:29;3.17;;;1.60;;
17201;SDS011;8717;53.588;10.176;2024-01-15T14:03:57;2.77;;;1.60;;
17201;SDS011;8717;53.588;10.176;2024-01-15T14:06:24;3.27;;;1.60;;
17201;SDS011;8717;53.588;10.176;2024-01-15T14:08:51;3.70;;;2.20;;
17201;SDS011;8717;53.588;10.176;2024-01-15T14:11:18;10.00;;;2.40;;
17201;SDS011;8717;53.588;10.176;2024-01-15T14:13:45;2.83;;;1.43;;
17201;SDS011;8717;53.588;10.176;2024-01-15T14:16:12;3.53;;;1.40;;
17201;SDS011;8717;53.588;10.176;2024-01-15T14:18:39;3.03;;;1.50;;
17201;SDS011;8717;53.588;10.176;2024-01-15T14:21:07;4.33;;;1.73;;
17201;SDS011;8717;53.588;10.176;2024-01-15T14:23:34;3.17;;;1.67;;
17201;SDS011;8717;53.588;10.176;2024-01-15T14:26:00;3.73;;;1.40;;
17201;SDS011;8717;53.588;10.176;2024-01-15T14:28:27;4.40;;;2.67;;
17201;SDS011;8717;53.588;10.176;2024-01-15T14:30:54;3.33;;;1.63;;
17201;SDS011;8717;53.588;10.176;2024-01-15T14:33:23;3.93;;;1.50;;
17201;SDS011;8717;53.588;10.176;2024-01-15T14:35:50;5.27;;;2.00;;
17201;SDS011;8717;53.588;10.176;2024-01-15T14:38:18;3.87;;;1.50;;
17201;SDS011;8717;53.588;10.176;2024-01-15T14:40:45;3.17;;;1.70;;
17201;SDS011;8717;53.588;10.176;2024-01-15T14:43:11;3.40;;;1.60;;
17201;SDS011;8717;53.588;10.176;2024-01-15T14:45:38;5.90;;;1.67;;
17201;SDS011;8717;53.588;10.176;2024-01-15T14:48:05;5.70;;;1.63;;
17201;SDS011;8717;53.588;10.176;2024-01-15T14:50:32;2.83;;;1.30;;